sensor_id;sensor_type;location;lat;lon;timestamp;temperature;humidity
20139;DHT22;10230;51.502;10.800;2023-02-28T03:32:13;2.70;99.90
20139;DHT22;10230;51.502;10.800;2023-02-28T03:35:01;2.70;99.90
20139;DHT22;10230;51.502;10.800;2023-02-28T03:37:32;2.70;99.90
20139;DHT22;10230;51.502;10.800;2023-02-28T03:40:13;2.70;99.90
20139;DHT22;10230;51.502;10.800;2023-02-28T03:42:42;2.70;99.90
20139;DHT22;10230;51.502;10.800;2023-02-28T03:45:16;2.70;99.90
20139;DHT22;10230;51.502;10.800;2023-02-28T03:50:14;2.70;99.90
20139;DHT22;10230;51.502;10.800;2023-02-28T03:52:47;2.70;99.90
20139;DHT22;10230;51.502;10.800;2023-02-28T03:55:15;2.70;99.90
20139;DHT22;10230;51.502;10.800;2023-02-28T03:57:57;2.70;99.90
20139;DHT22;10230;51.502;10.800;2023-02-28T04:00:37;2.60;99.90
20139;DHT22;10230;51.502;10.800;2023-02-28T04:03:04;2.70;99.90
20139;DHT22;10230;51.502;10.800;2023-02-28T04:05:31;2.70;99.90
20139;DHT22;10230;51.502;10.800;2023-02-28T04:08:05;2.70;99.90
20139;DHT22;10230;51.502;10.800;2023-02-28T04:10:31;2.70;99.90
20139;DHT22;10230;51.502;10.800;2023-02-28T04:12:57;2.70;99.90
20139;DHT22;10230;51.502;10.800;2023-02-28T04:15:22;2.70;99.90
20139;DHT22;10230;51.502;10.800;2023-02-28T04:17:50;2.70;99.90
20139;DHT22;10230;51.502;10.800;2023-02-28T04:20:16;2.60;99.90
20139;DHT22;10230;51.502;10.800;2023-02-28T04:22:42;2.60;99.90
20139;DHT22;10230;51.502;10.800;2023-02-28T04:25:08;2.60;99.90
20139;DHT22;10230;51.502;10.800;2023-02-28T04:27:34;2.50;99.90
20139;DHT22;10230;51.502;10.800;2023-02-28T04:30:00;2.50;99.90
20139;DHT22;10230;51.502;10.800;2023-02-28T04:32:25;2.50;99.90
20139;DHT22;10230;51.502;10.800;2023-02-28T04:34:51;2.40;99.90
20139;DHT22;10230;51.502;10.800;2023-02-28T04:37:17;2.40;99.90
20139;DHT22;10230;51.502;10.800;2023-02-28T04:39:43;2.40;99.90
20139;DHT22;10230;51.502;10.800;2023-02-28T04:42:09;2.30;99.90
20139;DHT22;10230;51.502;10.800;2023-02-28T04:44:35;2.20;99.90
20139;DHT22;10230;51.502;10.800;2023-02-28T04:47:00;2.20;99.90
20139;DHT22;10230;51.502;10.800;2023-02-28T04:49:26;2.10;99.90
20139;DHT22;10230;51.502;10.800;2023-02-28T04:51:52;2.10;99.90
20139;DHT22;10230;51.502;10.800;2023-02-28T04:54:18;2.10;99.90
20139;DHT22;10230;51.502;10.800;2023-02-28T04:56:44;2.10;99.90
20139;DHT22;10230;51.502;10.800;2023-02-28T04:59:09;2.00;99.90
20139;DHT22;10230;51.502;10.800;2023-02-28T05:01:35;2.00;99.90
20139;DHT22;10230;51.502;10.800;2023-02-28T05:04:02;2.00;99.90
20139;DHT22;10230;51.502;10.800;2023-02-28T05:06:30;2.00;99.90
20139;DHT22;10230;51.502;10.800;2023-02-28T05:08:57;2.00;99.90
20139;DHT22;10230;51.502;10.800;2023-02-28T05:11:33;1.90;99.90
20139;DHT22;10230;51.502;10.800;2023-02-28T05:14:05;1.90;99.90
20139;DHT22;10230;51.502;10.800;2023-02-28T05:18:58;1.90;99.90
20139;DHT22;10230;51.502;10.800;2023-02-28T05:21:35;1.80;99.90
20139;DHT22;10230;51.502;10.800;2023-02-28T05:24:10;1.70;99.90
20139;DHT22;10230;51.502;10.800;2023-02-28T05:26:42;1.70;99.90
20139;DHT22;10230;51.502;10.800;2023-02-28T05:29:08;1.60;99.90
20139;DHT22;10230;51.502;10.800;2023-02-28T05:31:34;1.60;99.90
20139;DHT22;10230;51.502;10.800;2023-02-28T05:34:00;1.60;99.90
20139;DHT22;10230;51.502;10.800;2023-02-28T05:36:27;1.60;99.90
20139;DHT22;10230;51.502;10.800;2023-02-28T05:38:52;1.50;99.90
20139;DHT22;10230;51.502;10.800;2023-02-28T05:41:19;1.60;99.90
20139;DHT22;10230;51.502;10.800;2023-02-28T05:43:45;1.60;99.90
20139;DHT22;10230;51.502;10.800;2023-02-28T05:46:12;1.60;99.90
20139;DHT22;10230;51.502;10.800;2023-02-28T05:48:39;1.60;99.90
20139;DHT22;10230;51.502;10.800;2023-02-28T05:51:06;1.60;99.90
20139;DHT22;10230;51.502;10.800;2023-02-28T05:53:32;1.60;99.90
20139;DHT22;10230;51.502;10.800;2023-02-28T05:55:58;1.60;99.90
20139;DHT22;10230;51.502;10.800;2023-02-28T05:58:24;1.70;99.90
20139;DHT22;10230;51.502;10.800;2023-02-28T06:00:57;1.70;99.90
20139;DHT22;10230;51.502;10.800;2023-02-28T06:03:23;1.70;99.90
20139;DHT22;10230;51.502;10.800;2023-02-28T06:05:49;1.70;99.90
20139;DHT22;10230;51.502;10.800;2023-02-28T06:08:15;1.70;99.90
20139;DHT22;10230;51.502;10.800;2023-02-28T06:10:41;1.70;99.90
20139;DHT22;10230;51.502;10.800;2023-02-28T06:13:07;1.70;99.90
20139;DHT22;10230;51.502;10.800;2023-02-28T06:15:32;1.80;99.90
20139;DHT22;10230;51.502;10.800;2023-02-28T06:17:58;1.80;99.90
20139;DHT22;10230;51.502;10.800;2023-02-28T06:20:25;1.80;99.90
20139;DHT22;10230;51.502;10.800;2023-02-28T06:22:57;1.80;99.90
20139;DHT22;10230;51.502;10.800;2023-02-28T06:25:25;1.90;99.90
20139;DHT22;10230;51.502;10.800;2023-02-28T06:27:51;1.90;99.90
20139;DHT22;10230;51.502;10.800;2023-02-28T06:30:17;2.00;99.90
20139;DHT22;10230;51.502;10.800;2023-02-28T06:32:42;2.00;99.90
20139;DHT22;10230;51.502;10.800;2023-02-28T06:35:08;2.00;99.90
20139;DHT22;10230;51.502;10.800;2023-02-28T06:37:34;2.10;99.90
20139;DHT22;10230;51.502;10.800;2023-02-28T06:39:59;2.10;99.90
20139;DHT22;10230;51.502;10.800;2023-02-28T06:42:25;2.20;99.90
20139;DHT22;10230;51.502;10.800;2023-02-28T06:44:57;2.30;99.90
20139;DHT22;10230;51.502;10.800;2023-02-28T06:47:23;2.40;99.90
20139;DHT22;10230;51.502;10.800;2023-02-28T06:49:49;2.40;99.90
20139;DHT22;10230;51.502;10.800;2023-02-28T06:52:15;2.50;99.90
20139;DHT22;10230;51.502;10.800;2023-02-28T06:54:41;2.60;99.90
20139;DHT22;10230;51.502;10.800;2023-02-28T06:57:07;2.70;99.90
20139;DHT22;10230;51.502;10.800;2023-02-28T06:59:33;2.90;99.90
20139;DHT22;10230;51.502;10.800;2023-02-28T07:01:58;3.00;99.90
20139;DHT22;10230;51.502;10.800;2023-02-28T07:04:25;3.10;99.90
20139;DHT22;10230;51.502;10.800;2023-02-28T07:06:51;3.40;99.90
20139;DHT22;10230;51.502;10.800;2023-02-28T07:11:44;4.00;99.90
20139;DHT22;10230;51.502;10.800;2023-02-28T07:19:02;6.00;99.90
20139;DHT22;10230;51.502;10.800;2023-02-28T07:21:28;6.70;99.90
20139;DHT22;10230;51.502;10.800;2023-02-28T07:31:15;9.60;94.50
20139;DHT22;10230;51.502;10.800;2023-02-28T07:41:06;16.00;70.10
20139;DHT22;10230;51.502;10.800;2023-02-28T10:38:55;29.80;24.60
20139;DHT22;10230;51.502;10.800;2023-02-28T10:41:30;29.80;24.90
20139;DHT22;10230;51.502;10.800;2023-02-28T10:49:20;31.80;23.30
20139;DHT22;10230;51.502;10.800;2023-02-28T11:07:16;35.60;21.30
20139;DHT22;10230;51.502;10.800;2023-02-28T13:05:50;19.00;32.30
20139;DHT22;10230;51.502;10.800;2023-02-28T13:08:55;18.70;33.10
20139;DHT22;10230;51.502;10.800;2023-02-28T13:11:33;18.60;33.70
20139;DHT22;10230;51.502;10.800;2023-02-28T13:14:05;18.60;33.70
20139;DHT22;10230;51.502;10.800;2023-02-28T13:21:50;16.30;35.70
20139;DHT22;10230;51.502;10.800;2023-02-28T13:29:38;15.20;39.20
20139;DHT22;10230;51.502;10.800;2023-02-28T13:34:42;15.00;39.60
20139;DHT22;10230;51.502;10.800;2023-02-28T13:40:22;14.60;40.70
20139;DHT22;10230;51.502;10.800;2023-02-28T13:42:51;14.60;41.10
20139;DHT22;10230;51.502;10.800;2023-02-28T13:45:25;14.50;41.50
20139;DHT22;10230;51.502;10.800;2023-02-28T13:50:38;14.10;41.80
20139;DHT22;10230;51.502;10.800;2023-02-28T13:55:52;13.70;42.00
20139;DHT22;10230;51.502;10.800;2023-02-28T13:58:25;13.40;42.40
20139;DHT22;10230;51.502;10.800;2023-02-28T14:01:20;13.30;43.50
20139;DHT22;10230;51.502;10.800;2023-02-28T14:04:39;13.10;44.00
20139;DHT22;10230;51.502;10.800;2023-02-28T14:07:26;12.60;43.20
20139;DHT22;10230;51.502;10.800;2023-02-28T14:10:07;12.50;43.80
20139;DHT22;10230;51.502;10.800;2023-02-28T14:12:53;12.20;44.40
20139;DHT22;10230;51.502;10.800;2023-02-28T14:17:53;11.80;45.50
20139;DHT22;10230;51.502;10.800;2023-02-28T14:20:22;11.70;46.70
20139;DHT22;10230;51.502;10.800;2023-02-28T14:23:03;11.50;47.00
20139;DHT22;10230;51.502;10.800;2023-02-28T14:25:43;11.30;47.00
20139;DHT22;10230;51.502;10.800;2023-02-28T14:28:20;11.20;46.80
20139;DHT22;10230;51.502;10.800;2023-02-28T14:31:10;11.00;47.40
20139;DHT22;10230;51.502;10.800;2023-02-28T14:39:05;10.60;49.00
20139;DHT22;10230;51.502;10.800;2023-02-28T14:41:37;10.50;49.30
20139;DHT22;10230;51.502;10.800;2023-02-28T14:44:21;10.50;49.70
20139;DHT22;10230;51.502;10.800;2023-02-28T14:47:01;10.40;50.10
20139;DHT22;10230;51.502;10.800;2023-02-28T14:49:43;10.30;50.40
20139;DHT22;10230;51.502;10.800;2023-02-28T14:52:25;10.20;50.70
20139;DHT22;10230;51.502;10.800;2023-02-28T14:54:55;10.00;50.90
20139;DHT22;10230;51.502;10.800;2023-02-28T14:57:26;10.00;51.10
20139;DHT22;10230;51.502;10.800;2023-02-28T15:00:12;9.80;51.40
20139;DHT22;10230;51.502;10.800;2023-02-28T15:02:39;9.80;51.90
20139;DHT22;10230;51.502;10.800;2023-02-28T15:05:27;9.70;52.20
20139;DHT22;10230;51.502;10.800;2023-02-28T15:08:12;9.60;52.40
20139;DHT22;10230;51.502;10.800;2023-02-28T15:10:44;9.60;52.40
20139;DHT22;10230;51.502;10.800;2023-02-28T15:13:14;9.50;52.40
20139;DHT22;10230;51.502;10.800;2023-02-28T15:18:23;9.40;52.60
20139;DHT22;10230;51.502;10.800;2023-02-28T15:20:51;9.30;53.40
20139;DHT22;10230;51.502;10.800;2023-02-28T15:23:17;9.10;53.60
20139;DHT22;10230;51.502;10.800;2023-02-28T15:25:43;9.00;53.90
20139;DHT22;10230;51.502;10.800;2023-02-28T15:28:18;8.80;54.20
20139;DHT22;10230;51.502;10.800;2023-02-28T15:30:57;8.70;54.70
20139;DHT22;10230;51.502;10.800;2023-02-28T15:36:14;8.10;98.80
20139;DHT22;10230;51.502;10.800;2023-02-28T15:38:42;8.30;56.00
20139;DHT22;10230;51.502;10.800;2023-02-28T15:41:34;8.20;57.00
20139;DHT22;10230;51.502;10.800;2023-02-28T15:47:17;8.00;57.20
20139;DHT22;10230;51.502;10.800;2023-02-28T15:49:50;7.90;57.50
20139;DHT22;10230;51.502;10.800;2023-02-28T16:00:00;7.10;69.90
20139;DHT22;10230;51.502;10.800;2023-02-28T16:07:36;7.20;66.90
20139;DHT22;10230;51.502;10.800;2023-02-28T16:12:35;6.50;80.00
20139;DHT22;10230;51.502;10.800;2023-02-28T16:15:17;6.70;60.90
20139;DHT22;10230;51.502;10.800;2023-02-28T16:17:43;6.60;61.00
20139;DHT22;10230;51.502;10.800;2023-02-28T16:20:23;6.40;61.50
20139;DHT22;10230;51.502;10.800;2023-02-28T16:22:50;6.30;62.20
20139;DHT22;10230;51.502;10.800;2023-02-28T16:25:23;6.20;62.60
20139;DHT22;10230;51.502;10.800;2023-02-28T16:27:50;6.10;63.20
20139;DHT22;10230;51.502;10.800;2023-02-28T16:30:24;6.00;64.10
20139;DHT22;10230;51.502;10.800;2023-02-28T16:32:52;5.90;64.60
20139;DHT22;10230;51.502;10.800;2023-02-28T16:35:19;5.80;65.10
20139;DHT22;10230;51.502;10.800;2023-02-28T16:37:46;5.60;65.50
20139;DHT22;10230;51.502;10.800;2023-02-28T16:40:19;5.50;66.90
20139;DHT22;10230;51.502;10.800;2023-02-28T16:42:47;5.40;66.60
20139;DHT22;10230;51.502;10.800;2023-02-28T16:45:19;5.30;67.40
20139;DHT22;10230;51.502;10.800;2023-02-28T16:47:46;5.20;68.20
20139;DHT22;10230;51.502;10.800;2023-02-28T16:50:16;5.10;69.00
20139;DHT22;10230;51.502;10.800;2023-02-28T16:52:41;5.80;70.60
20139;DHT22;10230;51.502;10.800;2023-02-28T16:55:10;4.90;70.90
20139;DHT22;10230;51.502;10.800;2023-02-28T16:57:36;4.80;75.10
20139;DHT22;10230;51.502;10.800;2023-02-28T17:00:04;4.70;72.30
20139;DHT22;10230;51.502;10.800;2023-02-28T17:02:30;4.60;73.50
20139;DHT22;10230;51.502;10.800;2023-02-28T17:04:56;4.90;77.10
20139;DHT22;10230;51.502;10.800;2023-02-28T17:07:21;4.40;75.80
20139;DHT22;10230;51.502;10.800;2023-02-28T17:09:47;4.30;83.00
20139;DHT22;10230;51.502;10.800;2023-02-28T17:12:13;4.30;78.00
20139;DHT22;10230;51.502;10.800;2023-02-28T17:14:39;4.20;78.80
20139;DHT22;10230;51.502;10.800;2023-02-28T17:17:06;4.10;82.50
20139;DHT22;10230;51.502;10.800;2023-02-28T17:19:32;4.10;84.00
20139;DHT22;10230;51.502;10.800;2023-02-28T17:21:59;4.00;88.30
20139;DHT22;10230;51.502;10.800;2023-02-28T17:24:25;4.00;91.20
20139;DHT22;10230;51.502;10.800;2023-02-28T17:26:51;3.90;94.40
20139;DHT22;10230;51.502;10.800;2023-02-28T17:29:19;3.80;94.80
20139;DHT22;10230;51.502;10.800;2023-02-28T17:46:31;3.60;99.90
20139;DHT22;10230;51.502;10.800;2023-02-28T17:48:57;3.60;99.90
20139;DHT22;10230;51.502;10.800;2023-02-28T17:51:24;3.50;99.10
20139;DHT22;10230;51.502;10.800;2023-02-28T18:03:37;3.20;99.90
20139;DHT22;10230;51.502;10.800;2023-02-28T18:06:03;3.30;99.90
20139;DHT22;10230;51.502;10.800;2023-02-28T18:08:30;3.20;99.90
20139;DHT22;10230;51.502;10.800;2023-02-28T18:10:56;3.10;99.90
20139;DHT22;10230;51.502;10.800;2023-02-28T18:13:22;3.10;99.90
20139;DHT22;10230;51.502;10.800;2023-02-28T18:15:47;3.40;99.90
20139;DHT22;10230;51.502;10.800;2023-02-28T18:18:13;3.00;99.90
20139;DHT22;10230;51.502;10.800;2023-02-28T18:20:41;3.00;99.90
20139;DHT22;10230;51.502;10.800;2023-02-28T18:23:06;2.90;99.90
20139;DHT22;10230;51.502;10.800;2023-02-28T18:40:30;2.70;99.90
20139;DHT22;10230;51.502;10.800;2023-02-28T18:42:56;2.60;99.90
20139;DHT22;10230;51.502;10.800;2023-02-28T18:45:22;2.60;99.90
20139;DHT22;10230;51.502;10.800;2023-02-28T18:47:47;2.60;99.90
20139;DHT22;10230;51.502;10.800;2023-02-28T18:50:13;2.50;99.90
20139;DHT22;10230;51.502;10.800;2023-02-28T18:52:39;2.50;99.90
20139;DHT22;10230;51.502;10.800;2023-02-28T18:57:32;2.40;99.90
20139;DHT22;10230;51.502;10.800;2023-02-28T18:59:58;2.50;99.90
20139;DHT22;10230;51.502;10.800;2023-02-28T19:02:24;2.50;99.90
20139;DHT22;10230;51.502;10.800;2023-02-28T19:04:50;2.40;99.90
20139;DHT22;10230;51.502;10.800;2023-02-28T19:07:16;2.40;99.90
20139;DHT22;10230;51.502;10.800;2023-02-28T19:09:42;2.40;99.90
20139;DHT22;10230;51.502;10.800;2023-02-28T19:12:08;2.40;99.90
20139;DHT22;10230;51.502;10.800;2023-02-28T19:14:33;2.30;99.90
20139;DHT22;10230;51.502;10.800;2023-02-28T19:19:26;2.20;99.90
20139;DHT22;10230;51.502;10.800;2023-02-28T19:21:52;2.30;99.90
20139;DHT22;10230;51.502;10.800;2023-02-28T19:24:17;2.20;99.90
20139;DHT22;10230;51.502;10.800;2023-02-28T19:26:43;2.20;99.90
20139;DHT22;10230;51.502;10.800;2023-02-28T19:29:09;2.20;99.90
20139;DHT22;10230;51.502;10.800;2023-02-28T19:34:00;2.10;99.90
20139;DHT22;10230;51.502;10.800;2023-02-28T19:36:26;2.20;99.90
20139;DHT22;10230;51.502;10.800;2023-02-28T19:38:52;2.10;99.90
20139;DHT22;10230;51.502;10.800;2023-02-28T19:41:19;2.10;99.90
20139;DHT22;10230;51.502;10.800;2023-02-28T19:43:45;2.10;99.90
20139;DHT22;10230;51.502;10.800;2023-02-28T19:46:12;2.10;99.90
20139;DHT22;10230;51.502;10.800;2023-02-28T19:51:09;2.00;99.90
20139;DHT22;10230;51.502;10.800;2023-02-28T19:53:36;2.00;99.90
20139;DHT22;10230;51.502;10.800;2023-02-28T19:56:02;2.00;99.90
20139;DHT22;10230;51.502;10.800;2023-02-28T19:58:32;2.00;99.90
20139;DHT22;10230;51.502;10.800;2023-02-28T20:01:04;2.00;99.90
20139;DHT22;10230;51.502;10.800;2023-02-28T20:03:30;2.00;99.90
20139;DHT22;10230;51.502;10.800;2023-02-28T20:06:03;1.90;99.90
20139;DHT22;10230;51.502;10.800;2023-02-28T20:08:31;1.90;99.90
20139;DHT22;10230;51.502;10.800;2023-02-28T20:11:09;1.90;99.90
20139;DHT22;10230;51.502;10.800;2023-02-28T20:13:35;1.90;99.90
20139;DHT22;10230;51.502;10.800;2023-02-28T20:16:02;1.90;99.90
20139;DHT22;10230;51.502;10.800;2023-02-28T20:18:31;1.80;99.90
20139;DHT22;10230;51.502;10.800;2023-02-28T20:20:57;1.80;99.90
20139;DHT22;10230;51.502;10.800;2023-02-28T20:23:23;1.80;99.90
20139;DHT22;10230;51.502;10.800;2023-02-28T20:25:49;1.80;99.90
20139;DHT22;10230;51.502;10.800;2023-02-28T20:28:16;1.80;99.90
20139;DHT22;10230;51.502;10.800;2023-02-28T20:30:43;1.70;99.90
20139;DHT22;10230;51.502;10.800;2023-02-28T20:33:10;1.70;99.90
20139;DHT22;10230;51.502;10.800;2023-02-28T20:35:35;1.70;99.90
20139;DHT22;10230;51.502;10.800;2023-02-28T20:38:01;1.70;99.90
20139;DHT22;10230;51.502;10.800;2023-02-28T20:40:28;1.60;99.90
20139;DHT22;10230;51.502;10.800;2023-02-28T20:42:54;1.60;99.90
20139;DHT22;10230;51.502;10.800;2023-02-28T20:45:19;1.50;99.90
20139;DHT22;10230;51.502;10.800;2023-02-28T20:47:45;1.60;99.90
20139;DHT22;10230;51.502;10.800;2023-02-28T20:50:11;1.50;99.90
20139;DHT22;10230;51.502;10.800;2023-02-28T20:52:37;1.50;99.90
20139;DHT22;10230;51.502;10.800;2023-02-28T20:55:04;1.50;99.90
20139;DHT22;10230;51.502;10.800;2023-02-28T20:57:30;1.40;99.90
20139;DHT22;10230;51.502;10.800;2023-02-28T20:59:55;1.40;99.90
20139;DHT22;10230;51.502;10.800;2023-02-28T21:02:21;1.40;99.90
20139;DHT22;10230;51.502;10.800;2023-02-28T21:04:47;1.40;99.90
20139;DHT22;10230;51.502;10.800;2023-02-28T21:07:12;1.40;99.90
20139;DHT22;10230;51.502;10.800;2023-02-28T21:09:38;0.90;99.90
20139;DHT22;10230;51.502;10.800;2023-02-28T21:12:04;1.30;99.90
20139;DHT22;10230;51.502;10.800;2023-02-28T21:14:30;1.30;99.90
20139;DHT22;10230;51.502;10.800;2023-02-28T21:16:56;1.30;99.90
20139;DHT22;10230;51.502;10.800;2023-02-28T21:19:22;1.30;99.90
20139;DHT22;10230;51.502;10.800;2023-02-28T21:21:48;1.20;99.90
20139;DHT22;10230;51.502;10.800;2023-02-28T21:24:17;1.20;99.90
20139;DHT22;10230;51.502;10.800;2023-02-28T21:26:44;1.20;99.90
20139;DHT22;10230;51.502;10.800;2023-02-28T21:29:11;1.20;99.90
20139;DHT22;10230;51.502;10.800;2023-02-28T21:31:37;1.20;99.90
20139;DHT22;10230;51.502;10.800;2023-02-28T21:34:05;1.10;99.90
20139;DHT22;10230;51.502;10.800;2023-02-28T21:36:35;1.10;99.90
20139;DHT22;10230;51.502;10.800;2023-02-28T21:39:08;1.10;99.90
20139;DHT22;10230;51.502;10.800;2023-02-28T21:41:34;1.10;99.90
20139;DHT22;10230;51.502;10.800;2023-02-28T21:44:00;1.00;99.90
20139;DHT22;10230;51.502;10.800;2023-02-28T21:46:28;1.00;99.90
20139;DHT22;10230;51.502;10.800;2023-02-28T21:48:54;1.00;99.90
20139;DHT22;10230;51.502;10.800;2023-02-28T21:51:22;1.00;99.90
20139;DHT22;10230;51.502;10.800;2023-02-28T21:53:49;1.10;99.90
20139;DHT22;10230;51.502;10.800;2023-02-28T21:56:20;1.00;99.90
20139;DHT22;10230;51.502;10.800;2023-02-28T21:58:47;1.10;99.90
20139;DHT22;10230;51.502;10.800;2023-02-28T22:01:15;0.90;99.90
20139;DHT22;10230;51.502;10.800;2023-02-28T22:03:41;0.40;99.90
20139;DHT22;10230;51.502;10.800;2023-02-28T22:06:16;0.90;99.90
20139;DHT22;10230;51.502;10.800;2023-02-28T22:08:45;0.90;99.90
20139;DHT22;10230;51.502;10.800;2023-02-28T22:11:12;0.90;99.90
20139;DHT22;10230;51.502;10.800;2023-02-28T22:13:39;0.90;99.90
20139;DHT22;10230;51.502;10.800;2023-02-28T22:16:11;0.80;99.90
20139;DHT22;10230;51.502;10.800;2023-02-28T22:18:38;0.80;99.90
20139;DHT22;10230;51.502;10.800;2023-02-28T22:21:04;0.80;99.90
20139;DHT22;10230;51.502;10.800;2023-02-28T22:23:31;0.80;99.90
20139;DHT22;10230;51.502;10.800;2023-02-28T22:26:00;0.80;99.90
20139;DHT22;10230;51.502;10.800;2023-02-28T22:28:27;0.80;99.90
20139;DHT22;10230;51.502;10.800;2023-02-28T22:30:55;0.70;99.90
20139;DHT22;10230;51.502;10.800;2023-02-28T22:33:21;0.70;99.90
20139;DHT22;10230;51.502;10.800;2023-02-28T22:35:48;0.70;99.90
20139;DHT22;10230;51.502;10.800;2023-02-28T22:38:14;0.70;99.90
20139;DHT22;10230;51.502;10.800;2023-02-28T22:40:40;0.60;99.90
20139;DHT22;10230;51.502;10.800;2023-02-28T22:43:06;0.60;99.90
20139;DHT22;10230;51.502;10.800;2023-02-28T22:45:36;0.60;99.90
20139;DHT22;10230;51.502;10.800;2023-02-28T22:48:04;0.60;99.90
20139;DHT22;10230;51.502;10.800;2023-02-28T22:50:30;0.50;99.90
20139;DHT22;10230;51.502;10.800;2023-02-28T22:52:55;0.50;99.90
20139;DHT22;10230;51.502;10.800;2023-02-28T22:55:21;0.50;99.90
20139;DHT22;10230;51.502;10.800;2023-02-28T22:57:47;0.50;99.90
20139;DHT22;10230;51.502;10.800;2023-02-28T23:00:13;0.50;99.90
20139;DHT22;10230;51.502;10.800;2023-02-28T23:02:43;0.50;99.90
20139;DHT22;10230;51.502;10.800;2023-02-28T23:05:13;0.50;99.90
20139;DHT22;10230;51.502;10.800;2023-02-28T23:07:40;0.40;99.90
20139;DHT22;10230;51.502;10.800;2023-02-28T23:10:16;0.40;99.90
20139;DHT22;10230;51.502;10.800;2023-02-28T23:12:42;0.40;99.90
20139;DHT22;10230;51.502;10.800;2023-02-28T23:15:19;0.40;99.90
20139;DHT22;10230;51.502;10.800;2023-02-28T23:17:46;0.30;99.90
20139;DHT22;10230;51.502;10.800;2023-02-28T23:20:14;0.30;99.90
20139;DHT22;10230;51.502;10.800;2023-02-28T23:22:40;0.30;99.90
20139;DHT22;10230;51.502;10.800;2023-02-28T23:25:11;0.30;99.90
20139;DHT22;10230;51.502;10.800;2023-02-28T23:27:37;0.20;99.90
20139;DHT22;10230;51.502;10.800;2023-02-28T23:30:04;0.20;99.90
20139;DHT22;10230;51.502;10.800;2023-02-28T23:32:29;0.20;99.90
20139;DHT22;10230;51.502;10.800;2023-02-28T23:34:55;0.10;99.90
20139;DHT22;10230;51.502;10.800;2023-02-28T23:37:21;0.10;99.90
20139;DHT22;10230;51.502;10.800;2023-02-28T23:39:47;0.10;99.90
20139;DHT22;10230;51.502;10.800;2023-02-28T23:42:13;0.10;99.90
20139;DHT22;10230;51.502;10.800;2023-02-28T23:44:39;0.10;99.90
20139;DHT22;10230;51.502;10.800;2023-02-28T23:47:05;0.00;99.90
20139;DHT22;10230;51.502;10.800;2023-02-28T23:49:30;0.00;99.90
20139;DHT22;10230;51.502;10.800;2023-02-28T23:51:56;0.00;99.90
20139;DHT22;10230;51.502;10.800;2023-02-28T23:54:22;0.00;99.90
20139;DHT22;10230;51.502;10.800;2023-02-28T23:56:48;0.00;99.90
20139;DHT22;10230;51.502;10.800;2023-02-28T23:59:14;0.00;99.90
